Gary, Texas
Current Conditions -  °F | °C
As of 12:15 PM on Sunday 25 Jan 2015 (Local Time) from KRFI Reporting Station
Clear Clear  
Wind Chill: 64°   Ceiling: Unl
Heat Index: 64°   Visibility: 10mi
Dew Point: 36°   Wind: 15mph
Humidity: 35%   Direction: 280°W
Pressure: 29.95"   Gusts: 20mph
Location:  32.03°N, 94.37°W
Report Text: KRFI 251815Z AUTO 28013G17KT 10SM CLR 18/02 A2995 RMK AO2 T01760020
Loading
Personal Weather Stations






























Interactive Weather Map New forecast layout! Learn more

10-Day Weather Forecast

Advertisements
Track Severe Weather on mobile